sensor_id;sensor_type;location;lat;lon;timestamp;pressure;altitude;pressure_sealevel;temperature;humidity
76819;BME280;65772;51.096;17.006;2023-05-14T00:01:21;100690.28;;;16.40;41.32
76819;BME280;65772;51.096;17.006;2023-05-14T00:03:51;100688.52;;;16.38;41.37
76819;BME280;65772;51.096;17.006;2023-05-14T00:06:23;100690.73;;;16.36;41.39
76819;BME280;65772;51.096;17.006;2023-05-14T00:08:53;100687.44;;;16.35;41.30
76819;BME280;65772;51.096;17.006;2023-05-14T00:11:24;100686.39;;;16.33;41.47
76819;BME280;65772;51.096;17.006;2023-05-14T00:13:54;100684.48;;;16.32;41.49
76819;BME280;65772;51.096;17.006;2023-05-14T00:16:25;100683.11;;;16.31;41.43
76819;BME280;65772;51.096;17.006;2023-05-14T00:18:55;100680.67;;;16.30;41.55
76819;BME280;65772;51.096;17.006;2023-05-14T00:21:26;100680.67;;;16.29;41.40
76819;BME280;65772;51.096;17.006;2023-05-14T00:23:56;100677.37;;;16.28;41.48
76819;BME280;65772;51.096;17.006;2023-05-14T00:26:27;100675.47;;;16.27;41.56
76819;BME280;65772;51.096;17.006;2023-05-14T00:28:58;100678.19;;;16.25;41.62
76819;BME280;65772;51.096;17.006;2023-05-14T00:31:28;100679.54;;;16.22;41.75
76819;BME280;65772;51.096;17.006;2023-05-14T00:33:59;100677.63;;;16.19;41.87
76819;BME280;65772;51.096;17.006;2023-05-14T00:36:29;100679.83;;;16.17;41.88
76819;BME280;65772;51.096;17.006;2023-05-14T00:39:00;100676.68;;;16.14;41.98
76819;BME280;65772;51.096;17.006;2023-05-14T00:41:31;100677.00;;;16.12;42.12
76819;BME280;65772;51.096;17.006;2023-05-14T00:44:02;100676.47;;;16.09;42.15
76819;BME280;65772;51.096;17.006;2023-05-14T00:46:33;100677.48;;;16.08;42.13
76819;BME280;65772;51.096;17.006;2023-05-14T00:49:04;100676.78;;;16.06;42.13
76819;BME280;65772;51.096;17.006;2023-05-14T00:51:35;100674.34;;;16.05;42.27
76819;BME280;65772;51.096;17.006;2023-05-14T00:54:06;100676.25;;;16.05;42.45
76819;BME280;65772;51.096;17.006;2023-05-14T00:56:37;100676.23;;;16.04;42.51
76819;BME280;65772;51.096;17.006;2023-05-14T00:59:08;100679.31;;;16.03;42.48
76819;BME280;65772;51.096;17.006;2023-05-14T01:01:39;100677.08;;;16.03;42.51
76819;BME280;65772;51.096;17.006;2023-05-14T01:04:10;100678.45;;;16.03;42.57
76819;BME280;65772;51.096;17.006;2023-05-14T01:06:49;100673.63;;;16.03;42.69
76819;BME280;65772;51.096;17.006;2023-05-14T01:09:28;100671.55;;;16.02;42.64
76819;BME280;65772;51.096;17.006;2023-05-14T01:12:07;100673.28;;;16.03;42.72
76819;BME280;65772;51.096;17.006;2023-05-14T01:14:47;100667.59;;;16.02;42.67
76819;BME280;65772;51.096;17.006;2023-05-14T01:17:24;100667.23;;;16.01;42.81
76819;BME280;65772;51.096;17.006;2023-05-14T01:19:57;100665.66;;;15.99;42.74
76819;BME280;65772;51.096;17.006;2023-05-14T01:22:27;100665.48;;;15.99;42.77
76819;BME280;65772;51.096;17.006;2023-05-14T01:24:58;100665.84;;;15.98;42.85
76819;BME280;65772;51.096;17.006;2023-05-14T01:27:33;100664.96;;;15.97;42.89
76819;BME280;65772;51.096;17.006;2023-05-14T01:30:12;100663.39;;;15.96;42.88
76819;BME280;65772;51.096;17.006;2023-05-14T01:32:46;100666.47;;;15.95;42.79
76819;BME280;65772;51.096;17.006;2023-05-14T01:35:18;100669.04;;;15.94;43.04
76819;BME280;65772;51.096;17.006;2023-05-14T01:37:50;100664.55;;;15.93;43.06
76819;BME280;65772;51.096;17.006;2023-05-14T01:40:23;100663.34;;;15.93;43.05
76819;BME280;65772;51.096;17.006;2023-05-14T01:42:55;100663.15;;;15.92;43.12
76819;BME280;65772;51.096;17.006;2023-05-14T01:45:26;100660.05;;;15.90;43.14
76819;BME280;65772;51.096;17.006;2023-05-14T01:47:57;100658.82;;;15.89;43.28
76819;BME280;65772;51.096;17.006;2023-05-14T01:50:28;100656.73;;;15.87;43.29
76819;BME280;65772;51.096;17.006;2023-05-14T01:52:58;100652.58;;;15.85;43.35
76819;BME280;65772;51.096;17.006;2023-05-14T01:55:29;100648.74;;;15.82;43.41
76819;BME280;65772;51.096;17.006;2023-05-14T01:58:00;100656.81;;;15.80;43.47
76819;BME280;65772;51.096;17.006;2023-05-14T02:00:30;100650.25;;;15.78;43.55
76819;BME280;65772;51.096;17.006;2023-05-14T02:03:01;100651.59;;;15.75;43.49
76819;BME280;65772;51.096;17.006;2023-05-14T02:05:32;100649.48;;;15.72;43.72
76819;BME280;65772;51.096;17.006;2023-05-14T02:08:02;100651.33;;;15.70;43.63
76819;BME280;65772;51.096;17.006;2023-05-14T02:10:34;100649.75;;;15.68;43.87
76819;BME280;65772;51.096;17.006;2023-05-14T02:13:04;100649.90;;;15.64;43.91
76819;BME280;65772;51.096;17.006;2023-05-14T02:15:35;100649.66;;;15.61;43.89
76819;BME280;65772;51.096;17.006;2023-05-14T02:18:06;100652.21;;;15.59;44.14
76819;BME280;65772;51.096;17.006;2023-05-14T02:20:36;100647.19;;;15.56;44.16
76819;BME280;65772;51.096;17.006;2023-05-14T02:23:07;100650.41;;;15.54;44.32
76819;BME280;65772;51.096;17.006;2023-05-14T02:25:37;100646.91;;;15.51;44.29
76819;BME280;65772;51.096;17.006;2023-05-14T02:28:09;100643.42;;;15.48;44.36
76819;BME280;65772;51.096;17.006;2023-05-14T02:30:39;100642.36;;;15.45;44.59
76819;BME280;65772;51.096;17.006;2023-05-14T02:33:10;100643.35;;;15.42;44.62
76819;BME280;65772;51.096;17.006;2023-05-14T02:35:40;100638.83;;;15.40;44.70
76819;BME280;65772;51.096;17.006;2023-05-14T02:38:11;100637.76;;;15.36;44.81
76819;BME280;65772;51.096;17.006;2023-05-14T02:40:42;100635.85;;;15.34;44.77
76819;BME280;65772;51.096;17.006;2023-05-14T02:43:12;100634.60;;;15.31;44.96
76819;BME280;65772;51.096;17.006;2023-05-14T02:45:42;100632.50;;;15.30;44.89
76819;BME280;65772;51.096;17.006;2023-05-14T02:48:13;100634.20;;;15.28;44.94
76819;BME280;65772;51.096;17.006;2023-05-14T02:50:44;100636.58;;;15.26;45.04
76819;BME280;65772;51.096;17.006;2023-05-14T02:53:14;100636.05;;;15.24;45.11
76819;BME280;65772;51.096;17.006;2023-05-14T02:55:44;100631.57;;;15.24;45.02
76819;BME280;65772;51.096;17.006;2023-05-14T02:58:15;100633.79;;;15.23;45.21
76819;BME280;65772;51.096;17.006;2023-05-14T03:00:46;100632.41;;;15.23;45.19
76819;BME280;65772;51.096;17.006;2023-05-14T03:03:17;100630.15;;;15.22;45.13
76819;BME280;65772;51.096;17.006;2023-05-14T03:05:48;100629.27;;;15.20;45.14
76819;BME280;65772;51.096;17.006;2023-05-14T03:08:18;100630.27;;;15.19;45.37
76819;BME280;65772;51.096;17.006;2023-05-14T03:10:49;100628.68;;;15.17;45.32
76819;BME280;65772;51.096;17.006;2023-05-14T03:13:20;100629.19;;;15.16;45.25
76819;BME280;65772;51.096;17.006;2023-05-14T03:15:50;100630.39;;;15.15;45.57
76819;BME280;65772;51.096;17.006;2023-05-14T03:18:23;100632.27;;;15.13;45.48
76819;BME280;65772;51.096;17.006;2023-05-14T03:20:56;100631.91;;;15.13;45.42
76819;BME280;65772;51.096;17.006;2023-05-14T03:23:27;100631.56;;;15.12;45.62
76819;BME280;65772;51.096;17.006;2023-05-14T03:26:00;100633.98;;;15.13;45.58
76819;BME280;65772;51.096;17.006;2023-05-14T03:28:32;100637.24;;;15.13;45.46
76819;BME280;65772;51.096;17.006;2023-05-14T03:31:02;100637.06;;;15.12;45.59
76819;BME280;65772;51.096;17.006;2023-05-14T03:33:33;100639.77;;;15.11;45.56
76819;BME280;65772;51.096;17.006;2023-05-14T03:36:05;100640.79;;;15.09;45.70
76819;BME280;65772;51.096;17.006;2023-05-14T03:38:36;100638.87;;;15.08;45.71
76819;BME280;65772;51.096;17.006;2023-05-14T03:41:07;100642.46;;;15.07;45.98
76819;BME280;65772;51.096;17.006;2023-05-14T03:43:38;100641.23;;;15.06;45.91
76819;BME280;65772;51.096;17.006;2023-05-14T03:46:08;100637.27;;;15.05;46.19
76819;BME280;65772;51.096;17.006;2023-05-14T03:48:39;100633.84;;;15.04;46.06
76819;BME280;65772;51.096;17.006;2023-05-14T03:51:10;100635.02;;;15.04;46.22
76819;BME280;65772;51.096;17.006;2023-05-14T03:53:41;100632.77;;;15.02;46.07
76819;BME280;65772;51.096;17.006;2023-05-14T03:56:12;100631.04;;;15.01;45.97
76819;BME280;65772;51.096;17.006;2023-05-14T03:58:42;100630.16;;;15.00;46.38
76819;BME280;65772;51.096;17.006;2023-05-14T04:01:13;100631.30;;;14.97;46.27
76819;BME280;65772;51.096;17.006;2023-05-14T04:03:43;100626.98;;;14.96;46.50
76819;BME280;65772;51.096;17.006;2023-05-14T04:06:14;100627.48;;;14.95;46.87
76819;BME280;65772;51.096;17.006;2023-05-14T04:08:45;100623.17;;;14.94;46.67
76819;BME280;65772;51.096;17.006;2023-05-14T04:11:15;100622.50;;;14.95;46.66
76819;BME280;65772;51.096;17.006;2023-05-14T04:13:46;100625.25;;;14.95;46.57
76819;BME280;65772;51.096;17.006;2023-05-14T04:16:16;100623.34;;;14.94;46.76
76819;BME280;65772;51.096;17.006;2023-05-14T04:18:47;100623.39;;;14.96;46.73
76819;BME280;65772;51.096;17.006;2023-05-14T04:21:17;100624.45;;;14.98;46.59
76819;BME280;65772;51.096;17.006;2023-05-14T04:23:48;100624.31;;;15.00;46.68
76819;BME280;65772;51.096;17.006;2023-05-14T04:26:19;100624.67;;;15.01;46.72
76819;BME280;65772;51.096;17.006;2023-05-14T04:28:50;100625.02;;;15.01;46.69
76819;BME280;65772;51.096;17.006;2023-05-14T04:31:21;100623.31;;;15.02;46.74
76819;BME280;65772;51.096;17.006;2023-05-14T04:33:52;100624.00;;;15.02;46.80
76819;BME280;65772;51.096;17.006;2023-05-14T04:36:22;100623.85;;;15.03;46.74
76819;BME280;65772;51.096;17.006;2023-05-14T04:38:53;100624.37;;;15.03;46.70
76819;BME280;65772;51.096;17.006;2023-05-14T04:41:24;100624.04;;;15.04;46.70
76819;BME280;65772;51.096;17.006;2023-05-14T04:43:55;100620.27;;;15.04;46.67
76819;BME280;65772;51.096;17.006;2023-05-14T04:46:26;100622.31;;;15.05;46.86
76819;BME280;65772;51.096;17.006;2023-05-14T04:48:57;100620.09;;;15.05;46.85
76819;BME280;65772;51.096;17.006;2023-05-14T04:51:28;100620.23;;;15.05;47.03
76819;BME280;65772;51.096;17.006;2023-05-14T04:53:58;100614.93;;;15.06;47.10
76819;BME280;65772;51.096;17.006;2023-05-14T04:56:29;100617.89;;;15.07;47.06
76819;BME280;65772;51.096;17.006;2023-05-14T04:58:59;100618.08;;;15.09;47.20
76819;BME280;65772;51.096;17.006;2023-05-14T05:01:30;100613.98;;;15.11;46.95
76819;BME280;65772;51.096;17.006;2023-05-14T05:04:01;100611.61;;;15.12;46.86
76819;BME280;65772;51.096;17.006;2023-05-14T05:06:32;100609.76;;;15.14;46.82
76819;BME280;65772;51.096;17.006;2023-05-14T05:09:04;100605.79;;;15.16;47.14
76819;BME280;65772;51.096;17.006;2023-05-14T05:11:36;100605.30;;;15.17;47.01
76819;BME280;65772;51.096;17.006;2023-05-14T05:14:08;100603.95;;;15.18;47.15
76819;BME280;65772;51.096;17.006;2023-05-14T05:16:38;100600.02;;;15.20;47.21
76819;BME280;65772;51.096;17.006;2023-05-14T05:19:09;100597.81;;;15.21;47.13
76819;BME280;65772;51.096;17.006;2023-05-14T05:21:39;100596.13;;;15.23;47.11
76819;BME280;65772;51.096;17.006;2023-05-14T05:24:10;100596.49;;;15.25;47.03
76819;BME280;65772;51.096;17.006;2023-05-14T05:26:41;100596.84;;;15.27;47.33
76819;BME280;65772;51.096;17.006;2023-05-14T05:29:12;100595.67;;;15.29;47.41
76819;BME280;65772;51.096;17.006;2023-05-14T05:31:42;100594.86;;;15.31;47.25
76819;BME280;65772;51.096;17.006;2023-05-14T05:34:13;100591.64;;;15.33;47.45
76819;BME280;65772;51.096;17.006;2023-05-14T05:36:44;100586.32;;;15.36;47.47
76819;BME280;65772;51.096;17.006;2023-05-14T05:39:14;100588.92;;;15.38;47.51
76819;BME280;65772;51.096;17.006;2023-05-14T05:41:45;100588.61;;;15.41;47.34
76819;BME280;65772;51.096;17.006;2023-05-14T05:44:15;100589.52;;;15.44;47.57
76819;BME280;65772;51.096;17.006;2023-05-14T05:46:46;100589.55;;;15.47;47.52
76819;BME280;65772;51.096;17.006;2023-05-14T05:49:16;100587.52;;;15.49;47.37
76819;BME280;65772;51.096;17.006;2023-05-14T05:51:47;100589.27;;;15.52;47.39
76819;BME280;65772;51.096;17.006;2023-05-14T05:54:17;100590.36;;;15.54;47.35
76819;BME280;65772;51.096;17.006;2023-05-14T05:56:48;100592.65;;;15.56;47.40
76819;BME280;65772;51.096;17.006;2023-05-14T05:59:18;100593.36;;;15.58;47.60
76819;BME280;65772;51.096;17.006;2023-05-14T06:01:49;100593.91;;;15.61;47.44
76819;BME280;65772;51.096;17.006;2023-05-14T06:04:20;100590.34;;;15.64;47.43
76819;BME280;65772;51.096;17.006;2023-05-14T06:06:50;100590.36;;;15.65;47.40
76819;BME280;65772;51.096;17.006;2023-05-14T06:09:21;100591.41;;;15.68;47.54
76819;BME280;65772;51.096;17.006;2023-05-14T06:11:51;100590.06;;;15.70;47.72
76819;BME280;65772;51.096;17.006;2023-05-14T06:14:22;100587.85;;;15.71;47.79
76819;BME280;65772;51.096;17.006;2023-05-14T06:16:52;100589.08;;;15.73;47.73
76819;BME280;65772;51.096;17.006;2023-05-14T06:19:23;100584.98;;;15.75;47.82
76819;BME280;65772;51.096;17.006;2023-05-14T06:21:54;100584.83;;;15.77;47.73
76819;BME280;65772;51.096;17.006;2023-05-14T06:24:24;100585.17;;;15.78;47.95
76819;BME280;65772;51.096;17.006;2023-05-14T06:26:55;100588.97;;;15.80;47.96
76819;BME280;65772;51.096;17.006;2023-05-14T06:29:25;100587.46;;;15.83;47.93
76819;BME280;65772;51.096;17.006;2023-05-14T06:31:59;100583.72;;;15.86;47.92
76819;BME280;65772;51.096;17.006;2023-05-14T06:34:30;100585.13;;;15.88;48.04
76819;BME280;65772;51.096;17.006;2023-05-14T06:37:00;100584.27;;;15.90;48.11
76819;BME280;65772;51.096;17.006;2023-05-14T06:39:32;100586.87;;;15.91;48.33
76819;BME280;65772;51.096;17.006;2023-05-14T06:42:03;100585.54;;;15.94;48.35
76819;BME280;65772;51.096;17.006;2023-05-14T06:44:33;100585.76;;;15.98;48.52
76819;BME280;65772;51.096;17.006;2023-05-14T06:47:04;100582.68;;;16.01;48.59
76819;BME280;65772;51.096;17.006;2023-05-14T06:49:37;100582.22;;;16.05;48.70
76819;BME280;65772;51.096;17.006;2023-05-14T06:52:08;100580.38;;;16.11;48.76
76819;BME280;65772;51.096;17.006;2023-05-14T06:54:38;100577.34;;;16.17;48.61
76819;BME280;65772;51.096;17.006;2023-05-14T06:57:09;100574.27;;;16.21;48.25
76819;BME280;65772;51.096;17.006;2023-05-14T06:59:39;100565.36;;;16.24;47.91
76819;BME280;65772;51.096;17.006;2023-05-14T07:02:10;100562.46;;;16.28;47.85
76819;BME280;65772;51.096;17.006;2023-05-14T07:04:41;100552.52;;;16.30;48.18
76819;BME280;65772;51.096;17.006;2023-05-14T07:07:11;100554.23;;;16.33;48.16
76819;BME280;65772;51.096;17.006;2023-05-14T07:09:44;100548.06;;;16.36;48.26
76819;BME280;65772;51.096;17.006;2023-05-14T07:12:14;100545.35;;;16.39;48.21
76819;BME280;65772;51.096;17.006;2023-05-14T07:14:45;100543.99;;;16.41;47.85
76819;BME280;65772;51.096;17.006;2023-05-14T07:17:15;100543.64;;;16.44;47.61
76819;BME280;65772;51.096;17.006;2023-05-14T07:19:46;100538.33;;;16.45;47.42
76819;BME280;65772;51.096;17.006;2023-05-14T07:22:16;100540.24;;;16.48;47.31
76819;BME280;65772;51.096;17.006;2023-05-14T07:24:47;100534.58;;;16.50;47.31
76819;BME280;65772;51.096;17.006;2023-05-14T07:27:18;100537.17;;;16.53;47.41
76819;BME280;65772;51.096;17.006;2023-05-14T07:29:49;100534.96;;;16.56;47.33
76819;BME280;65772;51.096;17.006;2023-05-14T07:32:20;100532.39;;;16.59;47.28
76819;BME280;65772;51.096;17.006;2023-05-14T07:34:50;100531.23;;;16.62;48.05
76819;BME280;65772;51.096;17.006;2023-05-14T07:37:21;100529.91;;;16.67;48.24
76819;BME280;65772;51.096;17.006;2023-05-14T07:39:54;100528.75;;;16.72;48.41
76819;BME280;65772;51.096;17.006;2023-05-14T07:42:24;100526.52;;;16.76;48.47
76819;BME280;65772;51.096;17.006;2023-05-14T07:45:07;100524.16;;;16.81;48.58
76819;BME280;65772;51.096;17.006;2023-05-14T07:47:38;100524.55;;;16.89;49.20
76819;BME280;65772;51.096;17.006;2023-05-14T07:50:10;100523.73;;;16.96;48.71
76819;BME280;65772;51.096;17.006;2023-05-14T07:52:41;100522.91;;;17.02;48.24
76819;BME280;65772;51.096;17.006;2023-05-14T07:55:12;100519.83;;;17.07;48.09
76819;BME280;65772;51.096;17.006;2023-05-14T07:57:43;100519.17;;;17.12;47.71
76819;BME280;65772;51.096;17.006;2023-05-14T08:00:14;100519.71;;;17.16;47.52
76819;BME280;65772;51.096;17.006;2023-05-14T08:02:45;100520.07;;;17.20;47.18
76819;BME280;65772;51.096;17.006;2023-05-14T08:05:17;100515.44;;;17.23;47.04
76819;BME280;65772;51.096;17.006;2023-05-14T08:07:48;100514.41;;;17.26;47.29
76819;BME280;65772;51.096;17.006;2023-05-14T08:10:18;100513.38;;;17.29;47.16
76819;BME280;65772;51.096;17.006;2023-05-14T08:12:49;100517.71;;;17.32;46.58
76819;BME280;65772;51.096;17.006;2023-05-14T08:15:20;100514.28;;;17.34;46.40
76819;BME280;65772;51.096;17.006;2023-05-14T08:17:53;100511.19;;;17.37;46.79
76819;BME280;65772;51.096;17.006;2023-05-14T08:20:24;100505.33;;;17.40;46.50
76819;BME280;65772;51.096;17.006;2023-05-14T08:22:54;100499.81;;;17.43;45.52
76819;BME280;65772;51.096;17.006;2023-05-14T08:25:25;100501.21;;;17.44;46.41
76819;BME280;65772;51.096;17.006;2023-05-14T08:27:56;100501.73;;;17.48;46.15
76819;BME280;65772;51.096;17.006;2023-05-14T08:30:28;100499.16;;;17.52;46.29
76819;BME280;65772;51.096;17.006;2023-05-14T08:32:58;100494.52;;;17.55;46.69
76819;BME280;65772;51.096;17.006;2023-05-14T08:35:29;100493.14;;;17.59;46.55
76819;BME280;65772;51.096;17.006;2023-05-14T08:38:00;100494.56;;;17.64;46.78
76819;BME280;65772;51.096;17.006;2023-05-14T08:40:30;100492.86;;;17.67;46.32
76819;BME280;65772;51.096;17.006;2023-05-14T08:43:01;100485.77;;;17.70;46.58
76819;BME280;65772;51.096;17.006;2023-05-14T08:45:32;100486.64;;;17.73;46.67
76819;BME280;65772;51.096;17.006;2023-05-14T08:48:06;100484.23;;;17.74;46.16
76819;BME280;65772;51.096;17.006;2023-05-14T08:50:39;100482.86;;;17.75;45.85
76819;BME280;65772;51.096;17.006;2023-05-14T08:53:10;100476.83;;;17.77;45.13
76819;BME280;65772;51.096;17.006;2023-05-14T08:55:40;100475.95;;;17.80;45.18
76819;BME280;65772;51.096;17.006;2023-05-14T08:58:12;100470.27;;;17.84;45.80
76819;BME280;65772;51.096;17.006;2023-05-14T09:00:42;100464.92;;;17.86;45.80
76819;BME280;65772;51.096;17.006;2023-05-14T09:03:13;100462.34;;;17.89;45.58
76819;BME280;65772;51.096;17.006;2023-05-14T09:05:45;100458.36;;;17.93;45.26
76819;BME280;65772;51.096;17.006;2023-05-14T09:08:17;100457.85;;;17.97;45.46
76819;BME280;65772;51.096;17.006;2023-05-14T09:10:48;100454.24;;;18.00;45.32
76819;BME280;65772;51.096;17.006;2023-05-14T09:13:19;100455.08;;;18.02;44.87
76819;BME280;65772;51.096;17.006;2023-05-14T09:15:50;100452.66;;;18.04;44.63
76819;BME280;65772;51.096;17.006;2023-05-14T09:18:20;100447.66;;;18.04;44.35
76819;BME280;65772;51.096;17.006;2023-05-14T09:20:51;100450.42;;;18.04;44.23
76819;BME280;65772;51.096;17.006;2023-05-14T09:23:22;100447.84;;;18.06;43.96
76819;BME280;65772;51.096;17.006;2023-05-14T09:25:54;100446.46;;;18.07;43.77
76819;BME280;65772;51.096;17.006;2023-05-14T09:28:25;100438.34;;;18.09;44.15
76819;BME280;65772;51.096;17.006;2023-05-14T09:30:56;100436.60;;;18.12;44.41
76819;BME280;65772;51.096;17.006;2023-05-14T09:33:28;100434.17;;;18.15;44.42
76819;BME280;65772;51.096;17.006;2023-05-14T09:36:03;100433.67;;;18.16;44.36
76819;BME280;65772;51.096;17.006;2023-05-14T09:38:34;100427.27;;;18.18;43.81
76819;BME280;65772;51.096;17.006;2023-05-14T09:41:04;100419.85;;;18.17;43.42
76819;BME280;65772;51.096;17.006;2023-05-14T09:43:35;100417.09;;;18.18;43.38
76819;BME280;65772;51.096;17.006;2023-05-14T09:46:06;100411.91;;;18.19;43.49
76819;BME280;65772;51.096;17.006;2023-05-14T09:48:36;100411.21;;;18.21;43.63
76819;BME280;65772;51.096;17.006;2023-05-14T09:51:08;100407.56;;;18.25;44.00
76819;BME280;65772;51.096;17.006;2023-05-14T09:53:39;100402.56;;;18.31;44.46
76819;BME280;65772;51.096;17.006;2023-05-14T09:56:09;100402.55;;;18.39;44.88
76819;BME280;65772;51.096;17.006;2023-05-14T09:58:40;100403.39;;;18.45;44.83
76819;BME280;65772;51.096;17.006;2023-05-14T10:01:10;100404.59;;;18.51;44.70
76819;BME280;65772;51.096;17.006;2023-05-14T10:03:42;100397.84;;;18.55;43.78
76819;BME280;65772;51.096;17.006;2023-05-14T10:06:13;100396.99;;;18.60;43.85
76819;BME280;65772;51.096;17.006;2023-05-14T10:08:47;100391.27;;;18.66;44.70
76819;BME280;65772;51.096;17.006;2023-05-14T10:11:21;100385.02;;;18.74;44.91
76819;BME280;65772;51.096;17.006;2023-05-14T10:13:57;100385.87;;;18.83;44.98
76819;BME280;65772;51.096;17.006;2023-05-14T10:16:32;100382.20;;;18.88;44.43
76819;BME280;65772;51.096;17.006;2023-05-14T10:19:07;100387.04;;;18.91;44.08
76819;BME280;65772;51.096;17.006;2023-05-14T10:21:39;100386.17;;;18.92;43.86
76819;BME280;65772;51.096;17.006;2023-05-14T10:24:11;100384.61;;;18.92;43.37
76819;BME280;65772;51.096;17.006;2023-05-14T10:26:42;100374.75;;;18.93;43.26
76819;BME280;65772;51.096;17.006;2023-05-14T10:29:13;100374.20;;;18.97;43.36
76819;BME280;65772;51.096;17.006;2023-05-14T10:31:49;100376.44;;;19.02;43.50
76819;BME280;65772;51.096;17.006;2023-05-14T10:34:36;100373.65;;;19.07;42.79
76819;BME280;65772;51.096;17.006;2023-05-14T10:37:10;100366.69;;;19.12;42.76
76819;BME280;65772;51.096;17.006;2023-05-14T10:39:42;100358.20;;;19.15;42.20
76819;BME280;65772;51.096;17.006;2023-05-14T10:42:15;100357.30;;;19.18;42.13
76819;BME280;65772;51.096;17.006;2023-05-14T10:44:52;100357.30;;;19.20;43.15
76819;BME280;65772;51.096;17.006;2023-05-14T10:47:24;100354.00;;;19.22;42.33
76819;BME280;65772;51.096;17.006;2023-05-14T10:49:56;100353.48;;;19.23;42.56
76819;BME280;65772;51.096;17.006;2023-05-14T10:52:27;100351.05;;;19.26;41.90
76819;BME280;65772;51.096;17.006;2023-05-14T10:54:59;100348.77;;;19.30;42.56
76819;BME280;65772;51.096;17.006;2023-05-14T10:57:34;100349.60;;;19.35;42.62
76819;BME280;65772;51.096;17.006;2023-05-14T11:00:07;100345.04;;;19.43;42.38
76819;BME280;65772;51.096;17.006;2023-05-14T11:02:40;100341.04;;;19.49;42.75
76819;BME280;65772;51.096;17.006;2023-05-14T11:05:13;100342.74;;;19.54;43.09
76819;BME280;65772;51.096;17.006;2023-05-14T11:07:46;100335.62;;;19.59;42.88
76819;BME280;65772;51.096;17.006;2023-05-14T11:10:19;100332.29;;;19.63;42.51
76819;BME280;65772;51.096;17.006;2023-05-14T11:12:51;100328.97;;;19.67;42.37
76819;BME280;65772;51.096;17.006;2023-05-14T11:15:23;100321.67;;;19.70;41.51
76819;BME280;65772;51.096;17.006;2023-05-14T11:17:54;100325.25;;;19.75;42.13
76819;BME280;65772;51.096;17.006;2023-05-14T11:20:25;100321.05;;;19.81;41.78
76819;BME280;65772;51.096;17.006;2023-05-14T11:22:56;100324.30;;;19.86;41.25
76819;BME280;65772;51.096;17.006;2023-05-14T11:25:26;100325.65;;;19.90;41.16
76819;BME280;65772;51.096;17.006;2023-05-14T11:27:57;100322.14;;;19.93;40.98
76819;BME280;65772;51.096;17.006;2023-05-14T11:30:27;100315.52;;;19.98;41.14
76819;BME280;65772;51.096;17.006;2023-05-14T11:33:00;100315.84;;;20.01;40.74
76819;BME280;65772;51.096;17.006;2023-05-14T11:35:32;100311.69;;;20.01;40.73
76819;BME280;65772;51.096;17.006;2023-05-14T11:38:02;100315.98;;;20.03;41.10
76819;BME280;65772;51.096;17.006;2023-05-14T11:40:35;100314.73;;;20.08;40.54
76819;BME280;65772;51.096;17.006;2023-05-14T11:43:05;100314.15;;;20.14;40.97
76819;BME280;65772;51.096;17.006;2023-05-14T11:45:36;100310.11;;;20.20;41.15
76819;BME280;65772;51.096;17.006;2023-05-14T11:48:13;100308.65;;;20.26;41.09
76819;BME280;65772;51.096;17.006;2023-05-14T11:50:47;100302.86;;;20.32;40.87
76819;BME280;65772;51.096;17.006;2023-05-14T11:53:19;100292.95;;;20.37;40.59
76819;BME280;65772;51.096;17.006;2023-05-14T11:55:48;100289.09;;;20.42;39.94
76819;BME280;65772;51.096;17.006;2023-05-14T11:58:19;100283.88;;;20.43;38.67
76819;BME280;65772;51.096;17.006;2023-05-14T12:00:51;100283.66;;;20.45;39.16
76819;BME280;65772;51.096;17.006;2023-05-14T12:03:23;100282.59;;;20.48;39.18
76819;BME280;65772;51.096;17.006;2023-05-14T12:05:59;100277.18;;;20.51;39.28
76819;BME280;65772;51.096;17.006;2023-05-14T12:08:37;100274.02;;;20.55;39.09
76819;BME280;65772;51.096;17.006;2023-05-14T12:11:09;100276.48;;;20.53;38.80
76819;BME280;65772;51.096;17.006;2023-05-14T12:13:39;100281.30;;;20.55;38.56
76819;BME280;65772;51.096;17.006;2023-05-14T12:16:09;100276.91;;;20.58;38.63
76819;BME280;65772;51.096;17.006;2023-05-14T12:18:40;100271.48;;;20.63;38.69
76819;BME280;65772;51.096;17.006;2023-05-14T12:21:10;100272.78;;;20.69;38.41
76819;BME280;65772;51.096;17.006;2023-05-14T12:23:41;100271.16;;;20.74;37.71
76819;BME280;65772;51.096;17.006;2023-05-14T12:26:12;100270.03;;;20.80;37.51
76819;BME280;65772;51.096;17.006;2023-05-14T12:28:44;100263.54;;;20.86;37.77
76819;BME280;65772;51.096;17.006;2023-05-14T12:31:17;100264.82;;;20.93;37.95
76819;BME280;65772;51.096;17.006;2023-05-14T12:33:48;100256.38;;;21.00;37.52
76819;BME280;65772;51.096;17.006;2023-05-14T12:36:18;100258.05;;;21.05;37.32
76819;BME280;65772;51.096;17.006;2023-05-14T12:38:56;100256.91;;;21.10;37.29
76819;BME280;65772;51.096;17.006;2023-05-14T12:41:27;100252.51;;;21.16;37.10
76819;BME280;65772;51.096;17.006;2023-05-14T12:43:58;100256.27;;;21.21;36.82
76819;BME280;65772;51.096;17.006;2023-05-14T12:46:29;100249.95;;;21.26;36.43
76819;BME280;65772;51.096;17.006;2023-05-14T12:49:00;100249.70;;;21.30;35.83
76819;BME280;65772;51.096;17.006;2023-05-14T12:51:30;100244.41;;;21.35;35.87
76819;BME280;65772;51.096;17.006;2023-05-14T12:54:00;100237.73;;;21.40;35.57
76819;BME280;65772;51.096;17.006;2023-05-14T12:56:31;100239.73;;;21.46;36.02
76819;BME280;65772;51.096;17.006;2023-05-14T12:59:01;100240.11;;;21.53;36.27
76819;BME280;65772;51.096;17.006;2023-05-14T13:01:32;100238.09;;;21.60;35.69